sensor_id;sensor_type;location;lat;lon;timestamp;temperature;humidity
10572;DHT22;5334;48.928;12.704;2023-05-29T00:00:26;15.80;99.90
10572;DHT22;5334;48.928;12.704;2023-05-29T00:02:52;15.80;99.90
10572;DHT22;5334;48.928;12.704;2023-05-29T00:05:18;15.70;99.90
10572;DHT22;5334;48.928;12.704;2023-05-29T00:07:44;15.70;99.90
10572;DHT22;5334;48.928;12.704;2023-05-29T00:10:10;15.70;99.90
10572;DHT22;5334;48.928;12.704;2023-05-29T00:12:37;15.60;99.90
10572;DHT22;5334;48.928;12.704;2023-05-29T00:15:04;15.60;99.90
10572;DHT22;5334;48.928;12.704;2023-05-29T00:17:30;15.50;99.90
10572;DHT22;5334;48.928;12.704;2023-05-29T00:19:59;15.50;99.90
10572;DHT22;5334;48.928;12.704;2023-05-29T00:22:27;15.40;99.90
10572;DHT22;5334;48.928;12.704;2023-05-29T00:27:19;15.20;99.90
10572;DHT22;5334;48.928;12.704;2023-05-29T00:29:45;15.20;99.90
10572;DHT22;5334;48.928;12.704;2023-05-29T00:32:11;15.20;99.90
10572;DHT22;5334;48.928;12.704;2023-05-29T00:34:36;15.10;99.90
10572;DHT22;5334;48.928;12.704;2023-05-29T00:37:02;15.00;99.90
10572;DHT22;5334;48.928;12.704;2023-05-29T00:39:28;15.00;99.90
10572;DHT22;5334;48.928;12.704;2023-05-29T00:41:54;15.10;99.90
10572;DHT22;5334;48.928;12.704;2023-05-29T00:44:20;15.10;99.90
10572;DHT22;5334;48.928;12.704;2023-05-29T00:46:48;15.00;99.90
10572;DHT22;5334;48.928;12.704;2023-05-29T00:49:15;15.00;99.90
10572;DHT22;5334;48.928;12.704;2023-05-29T00:51:42;14.90;99.90
10572;DHT22;5334;48.928;12.704;2023-05-29T00:54:12;14.90;99.90
10572;DHT22;5334;48.928;12.704;2023-05-29T00:56:41;14.90;99.90
10572;DHT22;5334;48.928;12.704;2023-05-29T00:59:13;14.90;99.90
10572;DHT22;5334;48.928;12.704;2023-05-29T01:01:39;14.90;99.90
10572;DHT22;5334;48.928;12.704;2023-05-29T01:04:06;14.80;99.90
10572;DHT22;5334;48.928;12.704;2023-05-29T01:06:33;14.80;99.90
10572;DHT22;5334;48.928;12.704;2023-05-29T01:08:58;14.80;99.90
10572;DHT22;5334;48.928;12.704;2023-05-29T01:11:37;14.80;99.90
10572;DHT22;5334;48.928;12.704;2023-05-29T01:14:09;14.80;99.90
10572;DHT22;5334;48.928;12.704;2023-05-29T01:16:55;14.80;99.90
10572;DHT22;5334;48.928;12.704;2023-05-29T01:22:51;14.80;99.90
10572;DHT22;5334;48.928;12.704;2023-05-29T01:25:46;14.70;99.90
10572;DHT22;5334;48.928;12.704;2023-05-29T01:28:18;14.70;99.90
10572;DHT22;5334;48.928;12.704;2023-05-29T01:30:45;14.60;99.90
10572;DHT22;5334;48.928;12.704;2023-05-29T01:33:11;14.50;99.90
10572;DHT22;5334;48.928;12.704;2023-05-29T01:35:37;14.40;99.90
10572;DHT22;5334;48.928;12.704;2023-05-29T01:38:03;14.40;99.90
10572;DHT22;5334;48.928;12.704;2023-05-29T01:42:55;14.30;99.90
10572;DHT22;5334;48.928;12.704;2023-05-29T01:45:20;14.30;99.90
10572;DHT22;5334;48.928;12.704;2023-05-29T01:47:46;14.30;99.90
10572;DHT22;5334;48.928;12.704;2023-05-29T01:50:15;14.20;99.90
10572;DHT22;5334;48.928;12.704;2023-05-29T01:52:43;14.20;99.90
10572;DHT22;5334;48.928;12.704;2023-05-29T01:55:09;14.20;99.90
10572;DHT22;5334;48.928;12.704;2023-05-29T01:57:35;14.20;99.90
10572;DHT22;5334;48.928;12.704;2023-05-29T02:00:02;14.20;99.90
10572;DHT22;5334;48.928;12.704;2023-05-29T02:02:39;14.10;99.90
10572;DHT22;5334;48.928;12.704;2023-05-29T02:05:07;14.10;99.90
10572;DHT22;5334;48.928;12.704;2023-05-29T02:07:33;14.10;99.90
10572;DHT22;5334;48.928;12.704;2023-05-29T02:09:59;14.10;99.90
10572;DHT22;5334;48.928;12.704;2023-05-29T02:12:24;14.10;99.90
10572;DHT22;5334;48.928;12.704;2023-05-29T02:14:50;14.00;99.90
10572;DHT22;5334;48.928;12.704;2023-05-29T02:17:16;13.90;99.90
10572;DHT22;5334;48.928;12.704;2023-05-29T02:22:08;13.60;99.90
10572;DHT22;5334;48.928;12.704;2023-05-29T02:24:33;13.60;99.90
10572;DHT22;5334;48.928;12.704;2023-05-29T02:26:59;13.60;99.90
10572;DHT22;5334;48.928;12.704;2023-05-29T02:29:24;13.50;99.90
10572;DHT22;5334;48.928;12.704;2023-05-29T02:31:50;13.40;99.90
10572;DHT22;5334;48.928;12.704;2023-05-29T02:34:16;13.30;99.90
10572;DHT22;5334;48.928;12.704;2023-05-29T02:36:41;13.30;99.90
10572;DHT22;5334;48.928;12.704;2023-05-29T02:39:07;13.30;99.90
10572;DHT22;5334;48.928;12.704;2023-05-29T02:41:33;13.20;99.90
10572;DHT22;5334;48.928;12.704;2023-05-29T02:46:25;13.00;99.90
10572;DHT22;5334;48.928;12.704;2023-05-29T02:48:50;13.00;99.90
10572;DHT22;5334;48.928;12.704;2023-05-29T02:51:16;13.00;99.90
10572;DHT22;5334;48.928;12.704;2023-05-29T02:53:41;12.90;99.90
10572;DHT22;5334;48.928;12.704;2023-05-29T02:56:07;12.90;99.90
10572;DHT22;5334;48.928;12.704;2023-05-29T02:58:34;12.90;99.90
10572;DHT22;5334;48.928;12.704;2023-05-29T03:01:01;12.80;99.90
10572;DHT22;5334;48.928;12.704;2023-05-29T03:03:29;12.90;99.90
10572;DHT22;5334;48.928;12.704;2023-05-29T03:05:55;12.90;99.90
10572;DHT22;5334;48.928;12.704;2023-05-29T03:08:20;12.90;99.90
10572;DHT22;5334;48.928;12.704;2023-05-29T03:10:46;12.90;99.90
10572;DHT22;5334;48.928;12.704;2023-05-29T03:13:13;12.80;99.90
10572;DHT22;5334;48.928;12.704;2023-05-29T03:18:04;12.70;99.90
10572;DHT22;5334;48.928;12.704;2023-05-29T03:20:30;12.60;99.90
10572;DHT22;5334;48.928;12.704;2023-05-29T03:22:56;12.60;99.90
10572;DHT22;5334;48.928;12.704;2023-05-29T03:25:22;12.60;99.90
10572;DHT22;5334;48.928;12.704;2023-05-29T03:27:48;12.60;99.90
10572;DHT22;5334;48.928;12.704;2023-05-29T03:30:13;12.50;99.90
10572;DHT22;5334;48.928;12.704;2023-05-29T03:32:39;12.50;99.90
10572;DHT22;5334;48.928;12.704;2023-05-29T03:35:06;12.50;99.90
10572;DHT22;5334;48.928;12.704;2023-05-29T03:37:31;12.50;99.90
10572;DHT22;5334;48.928;12.704;2023-05-29T03:39:57;12.50;99.90
10572;DHT22;5334;48.928;12.704;2023-05-29T03:42:23;12.50;99.90
10572;DHT22;5334;48.928;12.704;2023-05-29T03:44:48;12.50;99.90
10572;DHT22;5334;48.928;12.704;2023-05-29T03:47:14;12.50;99.90
10572;DHT22;5334;48.928;12.704;2023-05-29T03:49:39;12.50;99.90
10572;DHT22;5334;48.928;12.704;2023-05-29T03:52:05;12.60;99.90
10572;DHT22;5334;48.928;12.704;2023-05-29T03:54:33;12.60;99.90
10572;DHT22;5334;48.928;12.704;2023-05-29T03:56:58;12.70;99.90
10572;DHT22;5334;48.928;12.704;2023-05-29T03:59:24;12.80;99.90
10572;DHT22;5334;48.928;12.704;2023-05-29T04:01:50;12.90;99.90
10572;DHT22;5334;48.928;12.704;2023-05-29T04:04:15;12.90;99.90
10572;DHT22;5334;48.928;12.704;2023-05-29T04:06:41;13.00;99.90
10572;DHT22;5334;48.928;12.704;2023-05-29T04:09:06;13.00;99.90
10572;DHT22;5334;48.928;12.704;2023-05-29T04:11:35;13.10;99.90
10572;DHT22;5334;48.928;12.704;2023-05-29T04:14:01;13.10;99.90
10572;DHT22;5334;48.928;12.704;2023-05-29T04:16:28;13.20;99.90
10572;DHT22;5334;48.928;12.704;2023-05-29T04:18:54;13.30;99.90
10572;DHT22;5334;48.928;12.704;2023-05-29T04:21:21;13.30;99.90
10572;DHT22;5334;48.928;12.704;2023-05-29T04:23:46;13.20;99.90
10572;DHT22;5334;48.928;12.704;2023-05-29T04:26:12;13.20;99.90
10572;DHT22;5334;48.928;12.704;2023-05-29T04:28:39;13.10;99.90
10572;DHT22;5334;48.928;12.704;2023-05-29T04:31:04;13.10;99.90
10572;DHT22;5334;48.928;12.704;2023-05-29T04:33:31;13.30;99.90
10572;DHT22;5334;48.928;12.704;2023-05-29T04:35:58;13.40;99.90
10572;DHT22;5334;48.928;12.704;2023-05-29T04:38:26;13.60;99.90
10572;DHT22;5334;48.928;12.704;2023-05-29T04:40:53;13.80;99.90
10572;DHT22;5334;48.928;12.704;2023-05-29T04:43:24;14.00;99.90
10572;DHT22;5334;48.928;12.704;2023-05-29T04:45:52;14.30;99.90
10572;DHT22;5334;48.928;12.704;2023-05-29T04:48:18;14.40;99.90
10572;DHT22;5334;48.928;12.704;2023-05-29T04:50:44;14.50;99.90
10572;DHT22;5334;48.928;12.704;2023-05-29T04:53:10;14.50;99.90
10572;DHT22;5334;48.928;12.704;2023-05-29T04:55:36;14.70;99.90
10572;DHT22;5334;48.928;12.704;2023-05-29T04:58:02;14.70;99.90
10572;DHT22;5334;48.928;12.704;2023-05-29T05:00:28;15.00;99.90
10572;DHT22;5334;48.928;12.704;2023-05-29T05:02:53;15.20;99.90
10572;DHT22;5334;48.928;12.704;2023-05-29T05:05:19;15.40;99.90
10572;DHT22;5334;48.928;12.704;2023-05-29T05:07:45;15.60;99.90
10572;DHT22;5334;48.928;12.704;2023-05-29T05:10:11;15.90;99.90
10572;DHT22;5334;48.928;12.704;2023-05-29T05:12:37;16.10;99.90
10572;DHT22;5334;48.928;12.704;2023-05-29T05:17:29;16.40;99.90
10572;DHT22;5334;48.928;12.704;2023-05-29T05:19:55;16.60;99.90
10572;DHT22;5334;48.928;12.704;2023-05-29T05:22:21;16.70;99.90
10572;DHT22;5334;48.928;12.704;2023-05-29T05:24:47;16.90;99.90
10572;DHT22;5334;48.928;12.704;2023-05-29T05:27:12;17.00;99.90
10572;DHT22;5334;48.928;12.704;2023-05-29T05:29:38;17.10;99.90
10572;DHT22;5334;48.928;12.704;2023-05-29T05:32:04;17.30;99.90
10572;DHT22;5334;48.928;12.704;2023-05-29T05:34:30;17.40;99.90
10572;DHT22;5334;48.928;12.704;2023-05-29T05:36:55;17.60;99.90
10572;DHT22;5334;48.928;12.704;2023-05-29T05:39:21;17.80;99.90
10572;DHT22;5334;48.928;12.704;2023-05-29T05:41:47;18.00;99.90
10572;DHT22;5334;48.928;12.704;2023-05-29T05:44:13;18.30;99.90
10572;DHT22;5334;48.928;12.704;2023-05-29T05:46:38;18.50;99.90
10572;DHT22;5334;48.928;12.704;2023-05-29T05:49:04;18.60;99.90
10572;DHT22;5334;48.928;12.704;2023-05-29T05:53:56;18.80;99.90
10572;DHT22;5334;48.928;12.704;2023-05-29T05:56:22;19.10;99.90
10572;DHT22;5334;48.928;12.704;2023-05-29T05:58:47;19.20;99.90
10572;DHT22;5334;48.928;12.704;2023-05-29T06:01:15;19.30;99.90
10572;DHT22;5334;48.928;12.704;2023-05-29T06:03:41;19.50;99.90
10572;DHT22;5334;48.928;12.704;2023-05-29T06:08:34;19.70;99.40
10572;DHT22;5334;48.928;12.704;2023-05-29T06:10:59;19.90;99.50
10572;DHT22;5334;48.928;12.704;2023-05-29T06:13:25;20.30;99.20
10572;DHT22;5334;48.928;12.704;2023-05-29T06:18:17;20.40;99.40
10572;DHT22;5334;48.928;12.704;2023-05-29T06:20:43;20.40;99.90
10572;DHT22;5334;48.928;12.704;2023-05-29T06:23:08;20.30;99.50
10572;DHT22;5334;48.928;12.704;2023-05-29T06:25:34;20.30;99.60
10572;DHT22;5334;48.928;12.704;2023-05-29T06:28:00;20.30;99.30
10572;DHT22;5334;48.928;12.704;2023-05-29T06:30:26;20.50;99.50
10572;DHT22;5334;48.928;12.704;2023-05-29T06:32:52;20.70;99.40
10572;DHT22;5334;48.928;12.704;2023-05-29T06:35:17;20.90;99.10
10572;DHT22;5334;48.928;12.704;2023-05-29T06:37:44;21.00;98.90
10572;DHT22;5334;48.928;12.704;2023-05-29T06:40:11;21.10;98.50
10572;DHT22;5334;48.928;12.704;2023-05-29T06:42:37;21.20;97.70
10572;DHT22;5334;48.928;12.704;2023-05-29T06:45:03;21.40;97.60
10572;DHT22;5334;48.928;12.704;2023-05-29T06:47:29;21.40;97.60
10572;DHT22;5334;48.928;12.704;2023-05-29T06:49:54;21.50;97.50
10572;DHT22;5334;48.928;12.704;2023-05-29T06:52:20;21.60;97.10
10572;DHT22;5334;48.928;12.704;2023-05-29T06:54:45;21.60;97.20
10572;DHT22;5334;48.928;12.704;2023-05-29T06:57:11;21.70;96.60
10572;DHT22;5334;48.928;12.704;2023-05-29T06:59:37;21.80;96.50
10572;DHT22;5334;48.928;12.704;2023-05-29T07:02:03;21.90;96.60
10572;DHT22;5334;48.928;12.704;2023-05-29T07:04:29;22.10;96.60
10572;DHT22;5334;48.928;12.704;2023-05-29T07:06:55;22.60;95.20
10572;DHT22;5334;48.928;12.704;2023-05-29T07:09:20;22.70;95.30
10572;DHT22;5334;48.928;12.704;2023-05-29T07:11:46;22.80;95.70
10572;DHT22;5334;48.928;12.704;2023-05-29T07:14:11;22.80;95.30
10572;DHT22;5334;48.928;12.704;2023-05-29T07:16:38;22.60;95.30
10572;DHT22;5334;48.928;12.704;2023-05-29T07:19:03;22.40;95.00
10572;DHT22;5334;48.928;12.704;2023-05-29T07:21:29;22.60;95.30
10572;DHT22;5334;48.928;12.704;2023-05-29T07:23:54;22.80;95.20
10572;DHT22;5334;48.928;12.704;2023-05-29T07:31:14;23.40;94.20
10572;DHT22;5334;48.928;12.704;2023-05-29T07:33:40;23.50;93.70
10572;DHT22;5334;48.928;12.704;2023-05-29T07:36:07;23.70;93.40
10572;DHT22;5334;48.928;12.704;2023-05-29T07:38:33;23.90;93.10
10572;DHT22;5334;48.928;12.704;2023-05-29T07:40:58;24.10;92.00
10572;DHT22;5334;48.928;12.704;2023-05-29T07:43:24;24.40;92.20
10572;DHT22;5334;48.928;12.704;2023-05-29T07:45:50;24.60;91.60
10572;DHT22;5334;48.928;12.704;2023-05-29T07:48:15;24.70;91.60
10572;DHT22;5334;48.928;12.704;2023-05-29T07:50:41;24.80;91.90
10572;DHT22;5334;48.928;12.704;2023-05-29T07:53:07;24.70;91.20
10572;DHT22;5334;48.928;12.704;2023-05-29T07:55:34;24.60;91.60
10572;DHT22;5334;48.928;12.704;2023-05-29T07:58:00;24.50;90.60
10572;DHT22;5334;48.928;12.704;2023-05-29T08:00:27;24.70;90.30
10572;DHT22;5334;48.928;12.704;2023-05-29T08:02:53;24.80;87.40
10572;DHT22;5334;48.928;12.704;2023-05-29T08:05:19;24.80;84.50
10572;DHT22;5334;48.928;12.704;2023-05-29T08:07:46;25.00;82.00
10572;DHT22;5334;48.928;12.704;2023-05-29T08:10:13;25.20;82.30
10572;DHT22;5334;48.928;12.704;2023-05-29T08:12:39;24.90;82.20
10572;DHT22;5334;48.928;12.704;2023-05-29T08:15:05;25.10;83.30
10572;DHT22;5334;48.928;12.704;2023-05-29T08:17:32;25.00;82.00
10572;DHT22;5334;48.928;12.704;2023-05-29T08:19:58;25.00;80.70
10572;DHT22;5334;48.928;12.704;2023-05-29T08:22:28;25.30;75.60
10572;DHT22;5334;48.928;12.704;2023-05-29T08:24:55;25.60;77.50
10572;DHT22;5334;48.928;12.704;2023-05-29T08:27:21;25.60;78.20
10572;DHT22;5334;48.928;12.704;2023-05-29T08:29:47;25.40;77.10
10572;DHT22;5334;48.928;12.704;2023-05-29T08:32:13;25.00;75.30
10572;DHT22;5334;48.928;12.704;2023-05-29T08:34:38;24.90;74.00
10572;DHT22;5334;48.928;12.704;2023-05-29T08:37:04;25.10;72.00
10572;DHT22;5334;48.928;12.704;2023-05-29T08:39:30;25.10;66.70
10572;DHT22;5334;48.928;12.704;2023-05-29T08:42:04;25.10;73.00
10572;DHT22;5334;48.928;12.704;2023-05-29T08:44:32;25.30;72.40
10572;DHT22;5334;48.928;12.704;2023-05-29T08:47:02;25.10;71.30
10572;DHT22;5334;48.928;12.704;2023-05-29T08:49:42;25.40;73.10
10572;DHT22;5334;48.928;12.704;2023-05-29T08:52:20;25.80;72.50
10572;DHT22;5334;48.928;12.704;2023-05-29T08:54:46;25.60;71.50
10572;DHT22;5334;48.928;12.704;2023-05-29T08:57:12;25.80;70.80
10572;DHT22;5334;48.928;12.704;2023-05-29T08:59:42;26.30;71.60
10572;DHT22;5334;48.928;12.704;2023-05-29T09:02:10;26.60;70.70
10572;DHT22;5334;48.928;12.704;2023-05-29T09:04:37;26.60;70.60
10572;DHT22;5334;48.928;12.704;2023-05-29T09:07:03;26.60;69.70
10572;DHT22;5334;48.928;12.704;2023-05-29T09:09:29;26.70;69.10
10572;DHT22;5334;48.928;12.704;2023-05-29T09:11:57;26.40;67.10
10572;DHT22;5334;48.928;12.704;2023-05-29T09:14:43;26.00;67.00
10572;DHT22;5334;48.928;12.704;2023-05-29T09:17:10;26.00;66.00
10572;DHT22;5334;48.928;12.704;2023-05-29T09:19:36;26.00;64.00
10572;DHT22;5334;48.928;12.704;2023-05-29T09:22:05;26.10;67.30
10572;DHT22;5334;48.928;12.704;2023-05-29T09:24:35;26.30;70.20
10572;DHT22;5334;48.928;12.704;2023-05-29T09:27:04;26.40;71.70
10572;DHT22;5334;48.928;12.704;2023-05-29T09:29:31;26.80;72.50
10572;DHT22;5334;48.928;12.704;2023-05-29T09:31:58;26.60;71.90
10572;DHT22;5334;48.928;12.704;2023-05-29T09:34:24;26.20;68.20
10572;DHT22;5334;48.928;12.704;2023-05-29T09:36:52;26.20;71.40
10572;DHT22;5334;48.928;12.704;2023-05-29T09:39:18;26.50;71.90
10572;DHT22;5334;48.928;12.704;2023-05-29T09:41:47;26.90;69.80
10572;DHT22;5334;48.928;12.704;2023-05-29T09:44:14;27.00;68.00
10572;DHT22;5334;48.928;12.704;2023-05-29T09:46:41;27.20;66.90
10572;DHT22;5334;48.928;12.704;2023-05-29T09:49:12;27.10;66.00
10572;DHT22;5334;48.928;12.704;2023-05-29T09:51:38;27.30;66.30
10572;DHT22;5334;48.928;12.704;2023-05-29T09:54:26;27.40;66.10
10572;DHT22;5334;48.928;12.704;2023-05-29T09:56:54;27.10;63.50
10572;DHT22;5334;48.928;12.704;2023-05-29T09:59:24;26.60;65.40
10572;DHT22;5334;48.928;12.704;2023-05-29T10:02:01;26.10;66.70
10572;DHT22;5334;48.928;12.704;2023-05-29T10:04:39;25.90;66.80
10572;DHT22;5334;48.928;12.704;2023-05-29T10:07:25;25.70;67.50
10572;DHT22;5334;48.928;12.704;2023-05-29T10:09:57;25.60;66.10
10572;DHT22;5334;48.928;12.704;2023-05-29T10:12:24;25.50;67.50
10572;DHT22;5334;48.928;12.704;2023-05-29T10:14:56;25.80;67.90
10572;DHT22;5334;48.928;12.704;2023-05-29T10:17:26;26.30;66.90
10572;DHT22;5334;48.928;12.704;2023-05-29T10:19:55;26.40;66.80
10572;DHT22;5334;48.928;12.704;2023-05-29T10:22:25;26.60;65.60
10572;DHT22;5334;48.928;12.704;2023-05-29T10:24:52;26.50;63.30
10572;DHT22;5334;48.928;12.704;2023-05-29T10:27:18;26.60;63.30
10572;DHT22;5334;48.928;12.704;2023-05-29T10:29:53;26.90;65.50
10572;DHT22;5334;48.928;12.704;2023-05-29T10:32:29;27.10;67.20
10572;DHT22;5334;48.928;12.704;2023-05-29T10:35:27;26.80;63.90
10572;DHT22;5334;48.928;12.704;2023-05-29T10:38:16;26.30;64.30
10572;DHT22;5334;48.928;12.704;2023-05-29T10:40:44;26.10;65.80
10572;DHT22;5334;48.928;12.704;2023-05-29T10:43:33;26.40;65.20
10572;DHT22;5334;48.928;12.704;2023-05-29T10:46:02;26.20;61.10
10572;DHT22;5334;48.928;12.704;2023-05-29T10:48:39;26.30;64.20
10572;DHT22;5334;48.928;12.704;2023-05-29T10:51:06;26.30;62.20
10572;DHT22;5334;48.928;12.704;2023-05-29T10:53:33;26.50;65.70
10572;DHT22;5334;48.928;12.704;2023-05-29T10:56:00;26.60;63.90
10572;DHT22;5334;48.928;12.704;2023-05-29T10:58:30;26.60;64.80
10572;DHT22;5334;48.928;12.704;2023-05-29T11:00:56;26.90;65.60
10572;DHT22;5334;48.928;12.704;2023-05-29T11:06:18;27.70;62.80
10572;DHT22;5334;48.928;12.704;2023-05-29T11:11:12;27.50;63.20
10572;DHT22;5334;48.928;12.704;2023-05-29T11:13:39;27.30;65.70
10572;DHT22;5334;48.928;12.704;2023-05-29T11:18:51;28.10;64.60
10572;DHT22;5334;48.928;12.704;2023-05-29T11:24:26;28.40;64.00
10572;DHT22;5334;48.928;12.704;2023-05-29T11:26:54;27.50;64.60
10572;DHT22;5334;48.928;12.704;2023-05-29T11:29:25;26.70;65.50
10572;DHT22;5334;48.928;12.704;2023-05-29T11:32:05;26.10;67.00
10572;DHT22;5334;48.928;12.704;2023-05-29T11:34:33;26.20;68.30
10572;DHT22;5334;48.928;12.704;2023-05-29T11:37:00;26.60;67.70
10572;DHT22;5334;48.928;12.704;2023-05-29T11:39:26;27.10;67.40
10572;DHT22;5334;48.928;12.704;2023-05-29T11:41:53;27.30;67.00
10572;DHT22;5334;48.928;12.704;2023-05-29T11:44:20;27.70;67.40
10572;DHT22;5334;48.928;12.704;2023-05-29T11:46:46;27.90;67.00
10572;DHT22;5334;48.928;12.704;2023-05-29T11:49:11;28.20;65.10
10572;DHT22;5334;48.928;12.704;2023-05-29T11:51:37;28.30;64.00
10572;DHT22;5334;48.928;12.704;2023-05-29T11:54:03;28.10;64.00
10572;DHT22;5334;48.928;12.704;2023-05-29T11:56:29;28.20;65.70
10572;DHT22;5334;48.928;12.704;2023-05-29T11:58:58;28.30;65.60
10572;DHT22;5334;48.928;12.704;2023-05-29T12:01:25;28.10;62.80
10572;DHT22;5334;48.928;12.704;2023-05-29T12:03:52;27.90;65.30
10572;DHT22;5334;48.928;12.704;2023-05-29T12:06:35;28.20;66.50
10572;DHT22;5334;48.928;12.704;2023-05-29T12:11:30;29.30;62.30
10572;DHT22;5334;48.928;12.704;2023-05-29T12:13:59;29.60;62.60
10572;DHT22;5334;48.928;12.704;2023-05-29T12:18:53;29.80;62.70
10572;DHT22;5334;48.928;12.704;2023-05-29T12:21:21;30.00;62.20
10572;DHT22;5334;48.928;12.704;2023-05-29T12:23:47;30.00;60.60
10572;DHT22;5334;48.928;12.704;2023-05-29T12:26:12;30.00;60.70
10572;DHT22;5334;48.928;12.704;2023-05-29T12:28:45;30.10;59.10
10572;DHT22;5334;48.928;12.704;2023-05-29T12:31:11;30.10;60.00
10572;DHT22;5334;48.928;12.704;2023-05-29T12:33:43;30.40;60.10
10572;DHT22;5334;48.928;12.704;2023-05-29T21:51:13;18.90;63.00
10572;DHT22;5334;48.928;12.704;2023-05-29T21:53:39;18.70;64.60
10572;DHT22;5334;48.928;12.704;2023-05-29T21:56:05;18.60;64.20
10572;DHT22;5334;48.928;12.704;2023-05-29T21:58:32;18.50;64.30
10572;DHT22;5334;48.928;12.704;2023-05-29T22:00:58;18.50;64.70
10572;DHT22;5334;48.928;12.704;2023-05-29T22:03:23;18.50;63.90
10572;DHT22;5334;48.928;12.704;2023-05-29T22:05:49;18.50;65.20
10572;DHT22;5334;48.928;12.704;2023-05-29T22:08:15;18.50;63.70
10572;DHT22;5334;48.928;12.704;2023-05-29T22:10:40;18.60;63.40
10572;DHT22;5334;48.928;12.704;2023-05-29T22:13:06;18.60;64.40
10572;DHT22;5334;48.928;12.704;2023-05-29T22:15:31;18.60;63.00
10572;DHT22;5334;48.928;12.704;2023-05-29T22:17:57;18.70;63.60
10572;DHT22;5334;48.928;12.704;2023-05-29T22:20:24;18.60;64.40
10572;DHT22;5334;48.928;12.704;2023-05-29T22:22:51;18.60;64.50
10572;DHT22;5334;48.928;12.704;2023-05-29T22:25:17;18.50;64.50
10572;DHT22;5334;48.928;12.704;2023-05-29T22:27:43;18.50;65.20
10572;DHT22;5334;48.928;12.704;2023-05-29T22:30:10;18.40;65.70
10572;DHT22;5334;48.928;12.704;2023-05-29T22:32:36;18.40;65.90
10572;DHT22;5334;48.928;12.704;2023-05-29T22:35:07;18.30;67.50
10572;DHT22;5334;48.928;12.704;2023-05-29T22:37:33;18.20;67.00
10572;DHT22;5334;48.928;12.704;2023-05-29T22:39:59;18.20;66.60
10572;DHT22;5334;48.928;12.704;2023-05-29T22:42:24;18.20;66.50
10572;DHT22;5334;48.928;12.704;2023-05-29T22:44:50;18.20;66.80
10572;DHT22;5334;48.928;12.704;2023-05-29T22:47:16;18.10;66.20
10572;DHT22;5334;48.928;12.704;2023-05-29T22:49:43;18.20;65.80
10572;DHT22;5334;48.928;12.704;2023-05-29T22:52:09;18.30;66.10
10572;DHT22;5334;48.928;12.704;2023-05-29T22:54:36;18.30;66.60
10572;DHT22;5334;48.928;12.704;2023-05-29T22:57:03;18.20;67.50
10572;DHT22;5334;48.928;12.704;2023-05-29T22:59:30;18.10;70.80
10572;DHT22;5334;48.928;12.704;2023-05-29T23:01:56;18.00;69.90
10572;DHT22;5334;48.928;12.704;2023-05-29T23:04:22;17.80;69.20
10572;DHT22;5334;48.928;12.704;2023-05-29T23:06:47;17.70;72.00
10572;DHT22;5334;48.928;12.704;2023-05-29T23:09:14;17.60;71.10
10572;DHT22;5334;48.928;12.704;2023-05-29T23:11:41;17.50;73.10
10572;DHT22;5334;48.928;12.704;2023-05-29T23:14:07;17.40;71.90
10572;DHT22;5334;48.928;12.704;2023-05-29T23:16:32;17.40;72.60
10572;DHT22;5334;48.928;12.704;2023-05-29T23:18:58;17.30;75.50
10572;DHT22;5334;48.928;12.704;2023-05-29T23:21:25;17.30;74.30
10572;DHT22;5334;48.928;12.704;2023-05-29T23:23:50;17.30;73.60
10572;DHT22;5334;48.928;12.704;2023-05-29T23:26:16;17.30;73.60
10572;DHT22;5334;48.928;12.704;2023-05-29T23:28:42;17.20;75.70
10572;DHT22;5334;48.928;12.704;2023-05-29T23:31:07;17.10;75.60
10572;DHT22;5334;48.928;12.704;2023-05-29T23:33:33;17.10;76.00
10572;DHT22;5334;48.928;12.704;2023-05-29T23:35:59;17.00;76.00
10572;DHT22;5334;48.928;12.704;2023-05-29T23:38:25;17.10;74.70
10572;DHT22;5334;48.928;12.704;2023-05-29T23:40:50;17.10;75.60
10572;DHT22;5334;48.928;12.704;2023-05-29T23:43:16;17.10;75.80
10572;DHT22;5334;48.928;12.704;2023-05-29T23:45:42;17.20;75.80
10572;DHT22;5334;48.928;12.704;2023-05-29T23:48:07;17.20;76.40
10572;DHT22;5334;48.928;12.704;2023-05-29T23:50:33;17.20;74.40
10572;DHT22;5334;48.928;12.704;2023-05-29T23:52:59;17.30;74.30
10572;DHT22;5334;48.928;12.704;2023-05-29T23:55:26;17.30;74.90
10572;DHT22;5334;48.928;12.704;2023-05-29T23:58:01;17.30;75.50
